createdAt,value
2022-11-03T00:02:06.358Z,6.50
2022-11-03T00:04:33.604Z,6.50
2022-11-03T00:07:00.770Z,6.50
2022-11-03T00:09:28.061Z,6.50
2022-11-03T00:11:55.231Z,6.50
2022-11-03T00:14:22.453Z,6.50
2022-11-03T00:16:49.790Z,6.50
2022-11-03T00:19:17.449Z,6.50
2022-11-03T00:21:45.978Z,6.60
2022-11-03T00:24:13.673Z,6.50
2022-11-03T00:26:40.930Z,6.50
2022-11-03T00:29:10.895Z,6.50
2022-11-03T00:31:40.086Z,6.60
2022-11-03T00:34:08.292Z,6.50
2022-11-03T00:36:41.068Z,6.50
2022-11-03T00:39:08.985Z,6.50
2022-11-03T00:41:36.679Z,6.40
2022-11-03T00:44:03.941Z,6.40
2022-11-03T00:46:35.322Z,6.40
2022-11-03T00:49:04.400Z,6.40
2022-11-03T00:51:33.953Z,6.40
2022-11-03T00:54:02.738Z,6.40
2022-11-03T00:56:32.750Z,6.40
2022-11-03T00:59:01.347Z,6.40
2022-11-03T01:01:39.368Z,6.40
2022-11-03T01:04:30.456Z,6.30
2022-11-03T01:06:59.283Z,6.30
2022-11-03T01:09:29.394Z,6.30
2022-11-03T01:12:23.252Z,6.30
2022-11-03T01:14:52.624Z,6.30
2022-11-03T01:17:25.088Z,6.30
2022-11-03T01:19:52.727Z,6.30
2022-11-03T01:22:21.328Z,6.30
2022-11-03T01:24:48.689Z,6.30
2022-11-03T01:27:18.644Z,6.40
2022-11-03T01:29:46.345Z,6.40
2022-11-03T01:32:13.544Z,6.40
2022-11-03T01:34:41.130Z,6.20
2022-11-03T01:37:09.424Z,6.20
2022-11-03T01:39:36.635Z,6.20
2022-11-03T01:42:03.961Z,6.20
2022-11-03T01:44:37.381Z,6.20
2022-11-03T01:47:26.302Z,6.20
2022-11-03T01:49:57.772Z,6.20
2022-11-03T01:52:44.721Z,6.20
2022-11-03T01:55:16.184Z,6.20
2022-11-03T01:58:07.221Z,6.20
2022-11-03T02:00:35.590Z,6.20
2022-11-03T02:03:03.236Z,6.20
2022-11-03T02:05:30.805Z,6.30
2022-11-03T02:08:04.167Z,6.20
2022-11-03T02:10:31.488Z,6.20
2022-11-03T02:12:59.095Z,6.10
2022-11-03T02:15:26.665Z,6.20
2022-11-03T02:17:55.693Z,6.00
2022-11-03T02:20:26.308Z,6.10
2022-11-03T02:23:04.995Z,6.00
2022-11-03T02:25:45.572Z,6.00
2022-11-03T02:28:32.529Z,6.00
2022-11-03T02:31:14.344Z,6.00
2022-11-03T02:33:59.349Z,6.00
2022-11-03T02:36:42.877Z,5.90
2022-11-03T02:39:15.167Z,5.90
2022-11-03T02:41:43.695Z,5.90
2022-11-03T02:44:19.895Z,5.80
2022-11-03T02:46:52.106Z,5.80
2022-11-03T02:49:19.395Z,5.80
2022-11-03T02:51:46.706Z,5.80
2022-11-03T02:54:23.547Z,5.80
2022-11-03T02:56:55.238Z,5.80
2022-11-03T02:59:29.212Z,5.80
2022-11-03T03:02:09.759Z,5.80
2022-11-03T03:04:40.986Z,5.80
2022-11-03T03:07:17.022Z,5.70
2022-11-03T03:09:50.204Z,5.70
2022-11-03T03:12:20.229Z,5.70
2022-11-03T03:14:50.340Z,5.70
2022-11-03T03:17:29.472Z,5.70
2022-11-03T03:20:08.507Z,5.70
2022-11-03T03:22:43.804Z,5.70
2022-11-03T03:25:16.497Z,5.60
2022-11-03T03:27:48.992Z,5.60
2022-11-03T03:30:17.119Z,5.60
2022-11-03T03:32:48.525Z,5.60
2022-11-03T03:35:23.685Z,5.60
2022-11-03T03:37:54.708Z,5.60
2022-11-03T03:40:32.022Z,5.50
2022-11-03T03:43:01.265Z,5.50
2022-11-03T03:45:29.907Z,5.50
2022-11-03T03:47:58.044Z,5.50
2022-11-03T03:50:29.483Z,5.40
2022-11-03T03:53:05.699Z,5.40
2022-11-03T03:55:45.219Z,5.40
2022-11-03T03:58:14.215Z,5.30
2022-11-03T04:00:42.341Z,5.30
2022-11-03T04:03:16.805Z,5.40
2022-11-03T04:05:44.997Z,5.30
2022-11-03T04:08:13.407Z,5.30
2022-11-03T04:10:40.921Z,5.20
2022-11-03T04:13:27.657Z,5.20
2022-11-03T04:16:13.486Z,5.20
2022-11-03T04:18:59.486Z,5.20
2022-11-03T04:21:45.450Z,5.20
2022-11-03T04:24:12.917Z,5.20
2022-11-03T04:26:40.809Z,5.20
2022-11-03T04:29:10.955Z,5.10
2022-11-03T04:31:38.832Z,5.20
2022-11-03T04:34:12.145Z,5.20
2022-11-03T04:36:39.648Z,5.30
2022-11-03T04:39:18.601Z,5.40
2022-11-03T04:41:46.231Z,5.40
2022-11-03T04:44:17.296Z,5.40
2022-11-03T04:46:46.580Z,5.40
2022-11-03T04:49:22.288Z,5.40
2022-11-03T04:51:50.254Z,5.50
2022-11-03T04:54:21.292Z,5.50
2022-11-03T04:56:48.465Z,5.50
2022-11-03T04:59:16.864Z,5.40
2022-11-03T05:01:45.873Z,5.50
2022-11-03T05:04:19.523Z,5.50
2022-11-03T05:06:51.744Z,5.50
2022-11-03T05:09:30.126Z,5.50
2022-11-03T05:11:57.461Z,5.60
2022-11-03T05:14:27.203Z,5.60
2022-11-03T05:16:56.200Z,5.60
2022-11-03T05:19:50.530Z,5.60
2022-11-03T05:22:22.075Z,5.70
2022-11-03T05:24:57.819Z,5.70
2022-11-03T05:27:25.503Z,5.70
2022-11-03T05:29:59.578Z,5.70
2022-11-03T05:32:34.089Z,5.60
2022-11-03T05:35:01.762Z,5.50
2022-11-03T05:37:34.595Z,5.50
2022-11-03T05:40:22.611Z,5.60
2022-11-03T05:43:01.007Z,5.60
2022-11-03T05:45:35.587Z,5.60
2022-11-03T05:48:10.402Z,5.60
2022-11-03T05:50:41.436Z,5.70
2022-11-03T05:53:40.151Z,5.70
2022-11-03T05:56:11.770Z,5.80
2022-11-03T05:58:41.897Z,5.90
2022-11-03T06:01:26.254Z,5.90
2022-11-03T06:03:53.619Z,5.90
2022-11-03T06:06:38.690Z,5.90
2022-11-03T06:09:14.182Z,5.90
2022-11-03T06:11:46.063Z,6.10
2022-11-03T06:14:24.935Z,6.00
2022-11-03T06:17:07.700Z,6.00
2022-11-03T06:19:45.186Z,6.00
2022-11-03T06:22:21.431Z,6.00
2022-11-03T06:24:48.736Z,6.00
2022-11-03T06:27:23.043Z,6.00
2022-11-03T06:29:53.144Z,6.00
2022-11-03T06:32:20.752Z,6.10
2022-11-03T06:34:52.082Z,6.10
2022-11-03T06:37:19.514Z,6.30
2022-11-03T06:39:48.123Z,6.10
2022-11-03T06:42:16.914Z,6.20
2022-11-03T06:44:47.257Z,6.10
2022-11-03T06:47:26.066Z,6.20
2022-11-03T06:49:59.269Z,6.20
2022-11-03T06:52:34.123Z,6.30
2022-11-03T06:55:10.719Z,6.30
2022-11-03T06:57:44.386Z,6.40
2022-11-03T07:00:35.487Z,6.50
2022-11-03T07:03:27.832Z,6.40
2022-11-03T07:06:05.853Z,6.50
2022-11-03T07:08:40.909Z,6.60
2022-11-03T07:11:18.847Z,6.70
2022-11-03T07:13:51.602Z,6.70
2022-11-03T07:16:33.344Z,6.70
2022-11-03T07:19:03.167Z,6.70
2022-11-03T07:21:40.467Z,6.80
2022-11-03T07:24:23.893Z,6.80
2022-11-03T07:27:16.072Z,6.80
2022-11-03T07:29:45.152Z,6.80
2022-11-03T07:32:20.807Z,6.80
2022-11-03T07:34:49.329Z,6.90
2022-11-03T07:37:20.609Z,6.90
2022-11-03T07:39:48.832Z,7.00
2022-11-03T07:42:20.723Z,7.00
2022-11-03T07:44:49.455Z,7.00
2022-11-03T07:47:20.309Z,7.00
2022-11-03T07:49:47.679Z,7.00
2022-11-03T07:52:16.654Z,7.10
2022-11-03T07:54:44.222Z,7.20
2022-11-03T07:57:11.362Z,7.20
2022-11-03T07:59:41.803Z,7.30
2022-11-03T08:02:48.869Z,7.40
2022-11-03T08:05:16.643Z,7.50
2022-11-03T08:07:44.103Z,7.60
2022-11-03T08:10:11.327Z,7.80
2022-11-03T08:12:38.661Z,7.70
2022-11-03T08:15:07.316Z,7.70
2022-11-03T08:17:34.646Z,7.80
2022-11-03T08:20:01.921Z,7.90
2022-11-03T08:22:29.940Z,8.00
2022-11-03T08:24:57.133Z,8.00
2022-11-03T08:27:24.343Z,8.10
2022-11-03T08:29:51.721Z,8.30
2022-11-03T08:32:18.922Z,8.30
2022-11-03T08:34:46.070Z,8.40
2022-11-03T08:37:13.262Z,8.50
2022-11-03T08:39:40.427Z,8.60
2022-11-03T08:42:07.563Z,8.80
2022-11-03T08:44:34.899Z,8.80
2022-11-03T08:47:02.119Z,8.90
2022-11-03T08:49:29.567Z,9.10
2022-11-03T08:51:56.764Z,9.20
2022-11-03T08:54:23.915Z,9.40
2022-11-03T08:56:51.297Z,9.50
2022-11-03T08:59:18.504Z,9.60
2022-11-03T09:01:45.762Z,9.60
2022-11-03T09:04:12.999Z,9.70
2022-11-03T09:06:41.643Z,9.70
2022-11-03T09:11:55.987Z,10.00
2022-11-03T09:14:23.329Z,10.10
2022-11-03T09:16:50.619Z,10.20
2022-11-03T09:19:17.938Z,10.30
2022-11-03T09:21:45.126Z,10.30
2022-11-03T09:24:12.289Z,10.50
2022-11-03T09:26:39.509Z,10.60
2022-11-03T09:29:06.651Z,10.70
2022-11-03T09:31:33.799Z,10.60
2022-11-03T09:34:00.997Z,10.80
2022-11-03T09:36:28.156Z,10.90
2022-11-03T09:38:55.535Z,11.00
2022-11-03T09:41:27.759Z,11.20
2022-11-03T09:43:58.567Z,11.20
2022-11-03T09:46:28.203Z,11.40
2022-11-03T09:48:56.535Z,11.50
2022-11-03T09:51:25.441Z,11.60
2022-11-03T09:53:52.983Z,11.70
2022-11-03T09:56:23.204Z,11.80
2022-11-03T09:58:54.239Z,11.90
2022-11-03T10:01:22.649Z,12.00
2022-11-03T10:03:50.450Z,12.00
2022-11-03T10:06:17.760Z,12.10
2022-11-03T10:08:46.827Z,12.20
2022-11-03T10:11:14.936Z,12.40
2022-11-03T10:13:55.918Z,12.40
2022-11-03T10:16:25.837Z,12.50
2022-11-03T10:18:53.365Z,12.50
2022-11-03T10:21:33.959Z,12.60
2022-11-03T10:24:01.177Z,12.70
2022-11-03T10:26:29.038Z,12.70
2022-11-03T10:29:10.373Z,12.80
2022-11-03T10:31:39.864Z,12.90
2022-11-03T10:34:24.038Z,13.00
2022-11-03T10:37:06.430Z,13.10
2022-11-03T10:39:33.728Z,13.10
2022-11-03T10:42:00.940Z,13.30
2022-11-03T10:44:29.413Z,13.30
2022-11-03T10:47:01.956Z,13.30
2022-11-03T10:49:39.317Z,13.30
2022-11-03T10:52:24.925Z,13.40
2022-11-03T10:54:54.564Z,13.40
2022-11-03T10:57:23.243Z,13.40
2022-11-03T10:59:53.079Z,13.50
2022-11-03T11:02:26.364Z,13.40
2022-11-03T11:05:00.815Z,13.40
2022-11-03T11:07:40.074Z,13.40
2022-11-03T11:10:19.197Z,13.50
2022-11-03T11:13:25.496Z,13.50
2022-11-03T11:15:59.880Z,13.50
2022-11-03T11:18:30.160Z,13.60
2022-11-03T11:21:02.090Z,13.70
2022-11-03T11:23:29.387Z,13.70
2022-11-03T11:26:08.506Z,13.70
2022-11-03T11:28:40.770Z,13.70
2022-11-03T11:31:23.020Z,13.70
2022-11-03T11:33:50.271Z,13.70
2022-11-03T11:36:23.267Z,13.60
2022-11-03T11:38:55.289Z,13.60
2022-11-03T11:42:01.140Z,13.60
2022-11-03T11:44:43.557Z,13.60
2022-11-03T11:47:34.060Z,13.60
2022-11-03T11:50:13.288Z,13.70
2022-11-03T11:53:05.173Z,13.70
2022-11-03T11:55:38.174Z,13.80
2022-11-03T11:58:13.973Z,13.90
2022-11-03T12:01:19.902Z,13.80
2022-11-03T12:03:48.182Z,13.80
2022-11-03T12:06:15.727Z,13.80
2022-11-03T12:08:43.462Z,13.90
2022-11-03T12:11:12.518Z,13.90
2022-11-03T12:13:48.965Z,14.00
2022-11-03T12:16:36.048Z,14.00
2022-11-03T12:19:32.505Z,14.10
2022-11-03T12:22:00.033Z,14.20
2022-11-03T12:24:33.362Z,14.30
2022-11-03T12:27:01.203Z,14.40
2022-11-03T12:29:28.380Z,14.40
2022-11-03T12:31:55.771Z,14.40
2022-11-03T12:34:22.926Z,14.50
2022-11-03T12:36:55.765Z,14.50
2022-11-03T12:39:23.271Z,14.50
2022-11-03T12:41:50.418Z,14.30
2022-11-03T12:44:17.696Z,14.30
2022-11-03T12:46:44.861Z,14.30
2022-11-03T12:49:12.023Z,14.30
2022-11-03T12:51:39.150Z,14.30
2022-11-03T12:54:06.285Z,14.20
2022-11-03T12:56:33.481Z,14.20
2022-11-03T12:59:00.625Z,14.20
2022-11-03T13:01:27.844Z,14.20
2022-11-03T13:03:55.072Z,14.20
2022-11-03T13:06:22.294Z,14.30
2022-11-03T13:08:53.057Z,14.20
2022-11-03T13:11:39.094Z,14.30
2022-11-03T13:14:06.271Z,14.10
2022-11-03T13:16:33.685Z,14.20
2022-11-03T13:19:00.895Z,14.20
2022-11-03T13:21:28.109Z,14.20
2022-11-03T13:23:56.613Z,14.10
2022-11-03T13:26:23.791Z,14.10
2022-11-03T13:28:51.142Z,14.00
2022-11-03T13:31:18.343Z,14.10
2022-11-03T13:33:45.547Z,14.10
2022-11-03T13:36:13.023Z,14.10
2022-11-03T13:38:40.362Z,14.00
2022-11-03T13:41:09.161Z,13.90
2022-11-03T13:43:36.835Z,13.90
2022-11-03T13:46:05.036Z,13.80
2022-11-03T13:51:21.380Z,13.70
2022-11-03T14:07:11.777Z,13.30
2022-11-03T14:09:39.090Z,13.30
2022-11-03T14:12:25.446Z,13.20
2022-11-03T14:14:52.627Z,13.30
2022-11-03T14:17:19.841Z,13.20
2022-11-03T14:19:52.133Z,13.20
2022-11-03T14:22:23.984Z,13.20
2022-11-03T14:24:52.047Z,13.20
2022-11-03T14:27:19.969Z,13.10
2022-11-03T14:29:50.539Z,13.10
2022-11-03T14:32:19.022Z,13.10
2022-11-03T14:34:47.692Z,13.10
2022-11-03T14:37:15.674Z,12.90
2022-11-03T14:39:43.254Z,12.80
2022-11-03T14:42:16.489Z,12.80
2022-11-03T14:44:45.678Z,12.90
2022-11-03T14:47:22.969Z,12.70
2022-11-03T14:49:50.214Z,12.60
2022-11-03T14:52:18.005Z,12.60
2022-11-03T14:54:45.297Z,12.60
2022-11-03T14:57:12.646Z,12.50
2022-11-03T14:59:39.863Z,12.50
2022-11-03T15:02:07.202Z,12.50
2022-11-03T15:04:34.817Z,12.30
2022-11-03T15:07:02.211Z,12.40
2022-11-03T15:09:29.531Z,12.40
2022-11-03T15:11:56.810Z,12.30
2022-11-03T15:14:24.191Z,12.20
2022-11-03T15:16:51.454Z,12.20
2022-11-03T15:19:18.621Z,12.10
2022-11-03T15:21:45.793Z,12.10
2022-11-03T15:27:00.230Z,12.00
2022-11-03T15:29:27.450Z,11.90
2022-11-03T15:31:54.661Z,11.90
2022-11-03T15:34:21.833Z,11.70
2022-11-03T15:36:49.033Z,11.80
2022-11-03T15:39:17.319Z,11.80
2022-11-03T15:41:44.498Z,11.80
2022-11-03T15:44:11.798Z,11.70
2022-11-03T15:46:38.945Z,11.70
2022-11-03T15:49:06.090Z,11.60
2022-11-03T15:51:33.265Z,11.60
2022-11-03T15:54:00.621Z,11.50
2022-11-03T15:56:27.895Z,11.50
2022-11-03T15:58:55.332Z,11.50
2022-11-03T16:01:22.768Z,11.50
2022-11-03T16:03:50.127Z,11.40
2022-11-03T16:06:17.533Z,11.40
2022-11-03T16:08:45.004Z,11.40
2022-11-03T16:11:12.291Z,11.30
2022-11-03T16:13:39.704Z,11.30
2022-11-03T16:16:07.225Z,11.20
2022-11-03T16:18:34.785Z,11.20
2022-11-03T16:21:02.093Z,11.20
2022-11-03T16:23:29.339Z,11.30
2022-11-03T16:25:56.642Z,11.30
2022-11-03T16:28:24.137Z,11.20
2022-11-03T16:30:54.580Z,11.20
2022-11-03T16:33:22.556Z,11.20
2022-11-03T16:35:49.782Z,11.10
2022-11-03T16:38:17.056Z,11.10
2022-11-03T16:40:44.386Z,11.10
2022-11-03T16:43:12.368Z,11.10
2022-11-03T16:45:39.649Z,11.20
2022-11-03T16:48:07.699Z,11.00
2022-11-03T16:50:35.396Z,11.00
2022-11-03T16:53:03.340Z,11.00
2022-11-03T16:55:30.513Z,11.00
2022-11-03T16:57:57.706Z,11.00
2022-11-03T17:00:25.947Z,10.90
2022-11-03T17:02:53.116Z,11.00
2022-11-03T17:05:21.649Z,11.00
2022-11-03T17:07:53.519Z,11.00
2022-11-03T17:10:22.167Z,11.00
2022-11-03T17:12:50.005Z,10.90
2022-11-03T17:15:17.430Z,11.00
2022-11-03T17:17:44.702Z,11.00
2022-11-03T17:20:13.165Z,10.90
2022-11-03T17:22:40.477Z,10.90
2022-11-03T17:25:10.681Z,10.80
2022-11-03T17:27:45.249Z,10.80
2022-11-03T17:30:24.218Z,10.80
2022-11-03T17:32:53.618Z,10.80
2022-11-03T17:35:24.522Z,10.80
2022-11-03T17:37:52.604Z,10.80
2022-11-03T17:40:25.281Z,10.90
2022-11-03T17:42:53.002Z,10.70
2022-11-03T17:45:22.127Z,10.60
2022-11-03T17:47:49.613Z,10.70
2022-11-03T17:50:19.513Z,10.80
2022-11-03T17:52:48.648Z,10.60
2022-11-03T17:55:30.961Z,10.70
2022-11-03T17:58:00.407Z,10.70
2022-11-03T18:00:28.792Z,10.70
2022-11-03T18:02:56.961Z,10.70
2022-11-03T18:05:30.358Z,10.80
2022-11-03T18:07:59.411Z,10.80
2022-11-03T18:10:32.501Z,10.80
2022-11-03T18:13:17.367Z,10.80
2022-11-03T18:15:59.517Z,10.80
2022-11-03T18:18:41.773Z,10.80
2022-11-03T18:21:19.273Z,10.80
2022-11-03T18:23:46.506Z,10.80
2022-11-03T18:26:18.586Z,10.80
2022-11-03T18:28:46.490Z,10.80
2022-11-03T18:31:23.377Z,10.70
2022-11-03T18:33:52.318Z,10.70
2022-11-03T18:36:20.540Z,10.80
2022-11-03T18:38:48.852Z,10.70
2022-11-03T18:41:38.950Z,10.70
2022-11-03T18:44:25.281Z,10.70
2022-11-03T18:46:53.046Z,10.70
2022-11-03T18:49:20.457Z,10.60
2022-11-03T18:52:13.160Z,10.80
2022-11-03T18:54:45.743Z,10.70
2022-11-03T18:57:13.684Z,10.70
2022-11-03T18:59:44.331Z,10.70
2022-11-03T19:02:20.341Z,10.70
2022-11-03T19:04:48.653Z,10.70
2022-11-03T19:07:28.739Z,10.70
2022-11-03T19:09:55.975Z,10.70
2022-11-03T19:12:23.635Z,10.70
2022-11-03T19:14:50.946Z,10.70
2022-11-03T19:17:23.360Z,10.70
2022-11-03T19:19:53.186Z,10.60
2022-11-03T19:22:23.071Z,10.60
2022-11-03T19:24:50.445Z,10.60
2022-11-03T19:27:27.091Z,10.70
2022-11-03T19:29:55.830Z,10.60
2022-11-03T19:32:27.917Z,10.60
2022-11-03T19:35:02.542Z,10.60
2022-11-03T19:37:35.420Z,10.50
2022-11-03T19:40:08.670Z,10.60
2022-11-03T19:42:37.165Z,10.50
2022-11-03T19:45:16.297Z,10.60
2022-11-03T19:48:10.476Z,10.50
2022-11-03T19:50:36.792Z,10.60
2022-11-03T19:53:07.343Z,10.60
2022-11-03T19:55:40.910Z,10.60
2022-11-03T19:58:17.767Z,10.60
2022-11-03T20:00:46.285Z,10.60
2022-11-03T20:03:14.142Z,10.60
2022-11-03T20:05:46.538Z,10.50
2022-11-03T20:08:21.074Z,10.50
2022-11-03T20:10:48.923Z,10.50
2022-11-03T20:13:19.060Z,10.50
2022-11-03T20:15:46.766Z,10.50
2022-11-03T20:18:15.189Z,10.60
2022-11-03T20:20:44.787Z,10.50
2022-11-03T20:23:42.606Z,10.60
2022-11-03T20:26:19.156Z,10.60
2022-11-03T20:28:46.538Z,10.60
2022-11-03T20:31:15.548Z,10.70
2022-11-03T20:33:42.803Z,10.60
2022-11-03T20:36:18.527Z,10.60
2022-11-03T20:38:53.093Z,10.60
2022-11-03T20:41:20.274Z,10.60
2022-11-03T20:43:47.980Z,10.70
2022-11-03T20:46:24.412Z,10.60
2022-11-03T20:48:52.216Z,10.60
2022-11-03T20:51:23.014Z,10.80
2022-11-03T20:53:50.664Z,10.70
2022-11-03T20:56:26.493Z,10.70
2022-11-03T20:58:53.849Z,10.60
2022-11-03T21:01:33.485Z,10.70
2022-11-03T21:04:02.287Z,10.70
2022-11-03T21:06:32.317Z,10.70
2022-11-03T21:08:59.657Z,10.70
2022-11-03T21:11:29.607Z,10.70
2022-11-03T21:14:00.115Z,10.70
2022-11-03T21:16:48.637Z,10.70
2022-11-03T21:19:43.742Z,10.70
2022-11-03T21:22:51.186Z,10.80
2022-11-03T21:25:17.905Z,10.80
2022-11-03T21:27:45.915Z,11.10
2022-11-03T21:30:15.283Z,10.90
2022-11-03T21:32:43.909Z,10.90
2022-11-03T21:35:17.055Z,10.90
2022-11-03T21:37:44.463Z,11.00
2022-11-03T21:40:13.464Z,10.90
2022-11-03T21:42:59.635Z,11.00
2022-11-03T21:45:26.871Z,11.00
2022-11-03T21:48:14.212Z,11.00
2022-11-03T21:50:42.946Z,11.00
2022-11-03T21:53:11.747Z,11.00
2022-11-03T21:55:42.352Z,11.10
2022-11-03T21:58:09.612Z,11.00
2022-11-03T22:00:36.800Z,11.50
2022-11-03T22:03:04.163Z,11.00
2022-11-03T22:05:31.913Z,11.00
2022-11-03T22:07:59.207Z,11.00
2022-11-03T22:10:26.635Z,11.10
2022-11-03T22:12:53.924Z,11.00
2022-11-03T22:15:39.591Z,11.00
2022-11-03T22:18:07.658Z,11.10
2022-11-03T22:20:57.353Z,11.10
2022-11-03T22:23:43.171Z,11.10
2022-11-03T22:26:30.978Z,11.10
2022-11-03T22:29:17.852Z,11.00
2022-11-03T22:31:45.457Z,11.10
2022-11-03T22:34:31.873Z,11.10
2022-11-03T22:36:59.230Z,11.10
2022-11-03T22:39:45.346Z,11.10
2022-11-03T22:42:31.514Z,11.00
2022-11-03T22:45:17.677Z,11.00
2022-11-03T22:47:44.923Z,11.10
2022-11-03T22:50:12.337Z,11.00
2022-11-03T22:52:39.669Z,10.90
2022-11-03T22:55:07.187Z,10.90
2022-11-03T22:57:34.382Z,11.00
2022-11-03T23:00:01.757Z,11.10
2022-11-03T23:02:28.993Z,11.10
2022-11-03T23:04:56.237Z,11.10
2022-11-03T23:07:28.461Z,11.20
2022-11-03T23:09:59.074Z,10.90
2022-11-03T23:12:26.223Z,10.90
2022-11-03T23:15:11.909Z,10.80
2022-11-03T23:17:58.130Z,10.80
2022-11-03T23:20:43.978Z,10.90
2022-11-03T23:23:31.190Z,10.90
2022-11-03T23:25:58.407Z,11.00
2022-11-03T23:28:25.923Z,11.00
2022-11-03T23:30:53.228Z,11.20
2022-11-03T23:33:20.514Z,11.20
2022-11-03T23:35:47.717Z,11.30
2022-11-03T23:38:14.926Z,11.30
2022-11-03T23:40:42.083Z,11.40
2022-11-03T23:43:09.306Z,11.50
2022-11-03T23:45:55.027Z,11.60
2022-11-03T23:48:41.172Z,11.60
2022-11-03T23:51:08.469Z,11.70
2022-11-03T23:53:35.871Z,11.70
2022-11-03T23:56:21.539Z,11.80
2022-11-03T23:58:50.343Z,11.80
